sensor_id;sensor_type;location;lat;lon;timestamp;P1;durP1;ratioP1;P2;durP2;ratioP2
18796;SDS011;9526;52.612;13.300;2023-04-25T00:00:40;7.63;;;3.90;;
18796;SDS011;9526;52.612;13.300;2023-04-25T00:03:04;5.93;;;3.90;;
18796;SDS011;9526;52.612;13.300;2023-04-25T00:05:28;4.75;;;3.47;;
18796;SDS011;9526;52.612;13.300;2023-04-25T00:07:52;9.35;;;3.40;;
18796;SDS011;9526;52.612;13.300;2023-04-25T00:10:17;4.95;;;3.20;;
18796;SDS011;9526;52.612;13.300;2023-04-25T00:12:41;4.90;;;3.15;;
18796;SDS011;9526;52.612;13.300;2023-04-25T00:15:05;6.75;;;3.58;;
18796;SDS011;9526;52.612;13.300;2023-04-25T00:17:29;7.72;;;3.40;;
18796;SDS011;9526;52.612;13.300;2023-04-25T00:19:53;4.68;;;3.08;;
18796;SDS011;9526;52.612;13.300;2023-04-25T00:22:17;3.67;;;2.38;;
18796;SDS011;9526;52.612;13.300;2023-04-25T00:24:42;7.00;;;3.00;;
18796;SDS011;9526;52.612;13.300;2023-04-25T00:27:06;8.57;;;3.55;;
18796;SDS011;9526;52.612;13.300;2023-04-25T00:29:30;4.50;;;2.88;;
18796;SDS011;9526;52.612;13.300;2023-04-25T00:31:54;7.97;;;3.20;;
18796;SDS011;9526;52.612;13.300;2023-04-25T00:34:18;7.47;;;2.92;;
18796;SDS011;9526;52.612;13.300;2023-04-25T00:36:42;8.45;;;3.40;;
18796;SDS011;9526;52.612;13.300;2023-04-25T00:39:05;5.72;;;2.90;;
18796;SDS011;9526;52.612;13.300;2023-04-25T00:41:29;5.03;;;3.08;;
18796;SDS011;9526;52.612;13.300;2023-04-25T00:43:54;7.03;;;3.30;;
18796;SDS011;9526;52.612;13.300;2023-04-25T00:46:19;8.05;;;3.45;;
18796;SDS011;9526;52.612;13.300;2023-04-25T00:48:43;6.32;;;3.28;;
18796;SDS011;9526;52.612;13.300;2023-04-25T00:51:06;10.30;;;4.00;;
18796;SDS011;9526;52.612;13.300;2023-04-25T00:53:31;6.40;;;3.70;;
18796;SDS011;9526;52.612;13.300;2023-04-25T00:55:55;9.82;;;3.90;;
18796;SDS011;9526;52.612;13.300;2023-04-25T00:58:19;8.73;;;3.15;;
18796;SDS011;9526;52.612;13.300;2023-04-25T01:00:45;10.63;;;3.63;;
18796;SDS011;9526;52.612;13.300;2023-04-25T01:03:10;7.05;;;3.45;;
18796;SDS011;9526;52.612;13.300;2023-04-25T01:05:34;8.55;;;3.63;;
18796;SDS011;9526;52.612;13.300;2023-04-25T01:07:58;7.10;;;3.53;;
18796;SDS011;9526;52.612;13.300;2023-04-25T01:10:22;8.30;;;3.58;;
18796;SDS011;9526;52.612;13.300;2023-04-25T01:12:46;12.20;;;3.88;;
18796;SDS011;9526;52.612;13.300;2023-04-25T01:15:10;12.30;;;4.43;;
18796;SDS011;9526;52.612;13.300;2023-04-25T01:17:35;11.33;;;3.77;;
18796;SDS011;9526;52.612;13.300;2023-04-25T01:19:59;7.93;;;3.25;;
18796;SDS011;9526;52.612;13.300;2023-04-25T01:22:27;10.50;;;3.22;;
18796;SDS011;9526;52.612;13.300;2023-04-25T01:24:51;6.75;;;3.35;;
18796;SDS011;9526;52.612;13.300;2023-04-25T01:27:15;8.95;;;4.20;;
18796;SDS011;9526;52.612;13.300;2023-04-25T01:29:40;12.98;;;3.85;;
18796;SDS011;9526;52.612;13.300;2023-04-25T01:32:04;8.73;;;3.05;;
18796;SDS011;9526;52.612;13.300;2023-04-25T01:34:28;9.40;;;3.17;;
18796;SDS011;9526;52.612;13.300;2023-04-25T01:36:52;9.48;;;3.60;;
18796;SDS011;9526;52.612;13.300;2023-04-25T01:39:18;8.88;;;3.80;;
18796;SDS011;9526;52.612;13.300;2023-04-25T01:41:42;7.40;;;3.67;;
18796;SDS011;9526;52.612;13.300;2023-04-25T01:44:06;10.82;;;3.85;;
18796;SDS011;9526;52.612;13.300;2023-04-25T01:46:30;9.15;;;3.58;;
18796;SDS011;9526;52.612;13.300;2023-04-25T01:48:55;10.07;;;3.83;;
18796;SDS011;9526;52.612;13.300;2023-04-25T01:51:19;9.50;;;3.95;;
18796;SDS011;9526;52.612;13.300;2023-04-25T01:53:43;8.68;;;4.10;;
18796;SDS011;9526;52.612;13.300;2023-04-25T01:56:09;10.18;;;3.97;;
18796;SDS011;9526;52.612;13.300;2023-04-25T01:58:33;11.38;;;3.80;;
18796;SDS011;9526;52.612;13.300;2023-04-25T02:01:20;9.52;;;3.97;;
18796;SDS011;9526;52.612;13.300;2023-04-25T02:04:02;8.63;;;3.72;;
18796;SDS011;9526;52.612;13.300;2023-04-25T02:06:29;10.88;;;3.75;;
18796;SDS011;9526;52.612;13.300;2023-04-25T02:08:53;8.88;;;4.07;;
18796;SDS011;9526;52.612;13.300;2023-04-25T02:11:18;8.43;;;4.40;;
18796;SDS011;9526;52.612;13.300;2023-04-25T02:13:56;12.38;;;4.03;;
18796;SDS011;9526;52.612;13.300;2023-04-25T02:16:41;10.18;;;4.85;;
18796;SDS011;9526;52.612;13.300;2023-04-25T02:19:05;10.63;;;4.72;;
18796;SDS011;9526;52.612;13.300;2023-04-25T02:21:29;8.80;;;4.10;;
18796;SDS011;9526;52.612;13.300;2023-04-25T02:23:53;13.25;;;4.57;;
18796;SDS011;9526;52.612;13.300;2023-04-25T02:26:16;9.30;;;4.38;;
18796;SDS011;9526;52.612;13.300;2023-04-25T02:28:42;9.45;;;4.50;;
18796;SDS011;9526;52.612;13.300;2023-04-25T02:31:06;10.55;;;4.40;;
18796;SDS011;9526;52.612;13.300;2023-04-25T02:33:29;10.10;;;4.30;;
18796;SDS011;9526;52.612;13.300;2023-04-25T02:35:53;11.07;;;4.85;;
18796;SDS011;9526;52.612;13.300;2023-04-25T02:38:17;10.50;;;4.78;;
18796;SDS011;9526;52.612;13.300;2023-04-25T02:40:40;9.55;;;4.40;;
18796;SDS011;9526;52.612;13.300;2023-04-25T02:43:06;12.93;;;4.70;;
18796;SDS011;9526;52.612;13.300;2023-04-25T02:45:29;10.50;;;4.65;;
18796;SDS011;9526;52.612;13.300;2023-04-25T02:47:53;11.07;;;4.80;;
18796;SDS011;9526;52.612;13.300;2023-04-25T02:50:16;11.15;;;5.00;;
18796;SDS011;9526;52.612;13.300;2023-04-25T02:52:41;11.38;;;4.82;;
18796;SDS011;9526;52.612;13.300;2023-04-25T02:55:09;13.43;;;5.15;;
18796;SDS011;9526;52.612;13.300;2023-04-25T02:57:33;13.95;;;5.20;;
18796;SDS011;9526;52.612;13.300;2023-04-25T02:59:58;13.32;;;4.85;;
18796;SDS011;9526;52.612;13.300;2023-04-25T03:02:22;13.30;;;4.90;;
18796;SDS011;9526;52.612;13.300;2023-04-25T03:04:46;10.68;;;5.22;;
18796;SDS011;9526;52.612;13.300;2023-04-25T03:07:10;13.15;;;5.13;;
18796;SDS011;9526;52.612;13.300;2023-04-25T03:09:33;8.75;;;5.10;;
18796;SDS011;9526;52.612;13.300;2023-04-25T03:11:57;8.45;;;4.75;;
18796;SDS011;9526;52.612;13.300;2023-04-25T03:14:21;11.82;;;4.80;;
18796;SDS011;9526;52.612;13.300;2023-04-25T03:16:46;11.95;;;5.20;;
18796;SDS011;9526;52.612;13.300;2023-04-25T03:19:11;10.20;;;5.40;;
18796;SDS011;9526;52.612;13.300;2023-04-25T03:21:37;10.48;;;4.78;;
18796;SDS011;9526;52.612;13.300;2023-04-25T03:24:01;14.95;;;5.43;;
18796;SDS011;9526;52.612;13.300;2023-04-25T03:26:26;11.80;;;5.13;;
18796;SDS011;9526;52.612;13.300;2023-04-25T03:28:50;10.40;;;5.20;;
18796;SDS011;9526;52.612;13.300;2023-04-25T03:31:14;9.45;;;4.97;;
18796;SDS011;9526;52.612;13.300;2023-04-25T03:33:39;13.23;;;5.30;;
18796;SDS011;9526;52.612;13.300;2023-04-25T03:36:03;12.80;;;5.68;;
18796;SDS011;9526;52.612;13.300;2023-04-25T03:38:28;11.00;;;4.90;;
18796;SDS011;9526;52.612;13.300;2023-04-25T03:40:52;9.18;;;5.38;;
18796;SDS011;9526;52.612;13.300;2023-04-25T03:43:24;11.60;;;5.15;;
18796;SDS011;9526;52.612;13.300;2023-04-25T03:45:53;12.25;;;5.82;;
18796;SDS011;9526;52.612;13.300;2023-04-25T03:48:17;12.07;;;5.35;;
18796;SDS011;9526;52.612;13.300;2023-04-25T03:50:44;11.95;;;5.63;;
18796;SDS011;9526;52.612;13.300;2023-04-25T03:53:08;12.48;;;4.95;;
18796;SDS011;9526;52.612;13.300;2023-04-25T03:56:00;15.40;;;6.20;;
18796;SDS011;9526;52.612;13.300;2023-04-25T03:58:26;11.43;;;5.32;;
18796;SDS011;9526;52.612;13.300;2023-04-25T04:00:50;13.75;;;5.28;;
18796;SDS011;9526;52.612;13.300;2023-04-25T04:03:14;10.07;;;5.75;;
18796;SDS011;9526;52.612;13.300;2023-04-25T04:05:38;12.43;;;5.00;;
18796;SDS011;9526;52.612;13.300;2023-04-25T04:08:04;13.43;;;5.15;;
18796;SDS011;9526;52.612;13.300;2023-04-25T04:10:28;11.68;;;5.25;;
18796;SDS011;9526;52.612;13.300;2023-04-25T04:12:52;11.48;;;5.50;;
18796;SDS011;9526;52.612;13.300;2023-04-25T04:15:16;9.63;;;5.00;;
18796;SDS011;9526;52.612;13.300;2023-04-25T04:17:41;11.23;;;5.20;;
18796;SDS011;9526;52.612;13.300;2023-04-25T04:20:05;9.80;;;5.28;;
18796;SDS011;9526;52.612;13.300;2023-04-25T04:22:32;11.80;;;5.70;;
18796;SDS011;9526;52.612;13.300;2023-04-25T04:25:02;12.27;;;5.38;;
18796;SDS011;9526;52.612;13.300;2023-04-25T04:27:50;13.13;;;5.45;;
18796;SDS011;9526;52.612;13.300;2023-04-25T04:30:22;10.57;;;5.00;;
18796;SDS011;9526;52.612;13.300;2023-04-25T04:32:51;10.75;;;5.20;;
18796;SDS011;9526;52.612;13.300;2023-04-25T04:35:15;10.32;;;5.20;;
18796;SDS011;9526;52.612;13.300;2023-04-25T04:37:40;14.80;;;5.30;;
18796;SDS011;9526;52.612;13.300;2023-04-25T04:40:07;7.68;;;4.65;;
18796;SDS011;9526;52.612;13.300;2023-04-25T04:42:37;11.15;;;5.13;;
18796;SDS011;9526;52.612;13.300;2023-04-25T04:45:19;13.00;;;4.72;;
18796;SDS011;9526;52.612;13.300;2023-04-25T04:48:13;12.13;;;5.03;;
18796;SDS011;9526;52.612;13.300;2023-04-25T04:50:49;13.02;;;5.63;;
18796;SDS011;9526;52.612;13.300;2023-04-25T04:53:39;9.50;;;5.28;;
18796;SDS011;9526;52.612;13.300;2023-04-25T04:56:12;13.30;;;5.55;;
18796;SDS011;9526;52.612;13.300;2023-04-25T04:58:48;9.05;;;5.05;;
18796;SDS011;9526;52.612;13.300;2023-04-25T05:01:28;9.95;;;4.32;;
18796;SDS011;9526;52.612;13.300;2023-04-25T05:04:10;14.75;;;4.78;;
18796;SDS011;9526;52.612;13.300;2023-04-25T05:06:36;12.65;;;5.10;;
18796;SDS011;9526;52.612;13.300;2023-04-25T05:09:13;13.73;;;5.00;;
18796;SDS011;9526;52.612;13.300;2023-04-25T05:11:59;11.60;;;4.28;;
18796;SDS011;9526;52.612;13.300;2023-04-25T05:14:43;12.75;;;4.93;;
18796;SDS011;9526;52.612;13.300;2023-04-25T05:17:26;11.15;;;4.43;;
18796;SDS011;9526;52.612;13.300;2023-04-25T05:20:10;12.40;;;4.78;;
18796;SDS011;9526;52.612;13.300;2023-04-25T05:22:57;14.30;;;5.03;;
18796;SDS011;9526;52.612;13.300;2023-04-25T05:25:40;9.80;;;4.60;;
18796;SDS011;9526;52.612;13.300;2023-04-25T05:28:17;9.20;;;4.95;;
18796;SDS011;9526;52.612;13.300;2023-04-25T05:30:51;13.32;;;4.88;;
18796;SDS011;9526;52.612;13.300;2023-04-25T05:33:21;12.38;;;4.32;;
18796;SDS011;9526;52.612;13.300;2023-04-25T05:35:45;10.63;;;4.68;;
18796;SDS011;9526;52.612;13.300;2023-04-25T05:38:09;10.77;;;4.45;;
18796;SDS011;9526;52.612;13.300;2023-04-25T05:40:53;9.45;;;5.00;;
18796;SDS011;9526;52.612;13.300;2023-04-25T05:43:53;9.55;;;4.90;;
18796;SDS011;9526;52.612;13.300;2023-04-25T05:46:34;11.13;;;5.28;;
18796;SDS011;9526;52.612;13.300;2023-04-25T05:49:27;9.77;;;5.18;;
18796;SDS011;9526;52.612;13.300;2023-04-25T05:52:11;11.75;;;5.55;;
18796;SDS011;9526;52.612;13.300;2023-04-25T05:54:42;10.80;;;5.10;;
18796;SDS011;9526;52.612;13.300;2023-04-25T05:57:06;8.77;;;5.45;;
18796;SDS011;9526;52.612;13.300;2023-04-25T05:59:31;14.32;;;4.85;;
18796;SDS011;9526;52.612;13.300;2023-04-25T06:01:55;14.23;;;6.07;;
18796;SDS011;9526;52.612;13.300;2023-04-25T06:04:20;11.55;;;5.57;;
18796;SDS011;9526;52.612;13.300;2023-04-25T06:06:44;9.85;;;5.70;;
18796;SDS011;9526;52.612;13.300;2023-04-25T06:09:08;13.00;;;6.05;;
18796;SDS011;9526;52.612;13.300;2023-04-25T06:11:34;13.07;;;5.65;;
18796;SDS011;9526;52.612;13.300;2023-04-25T06:13:58;11.55;;;5.68;;
18796;SDS011;9526;52.612;13.300;2023-04-25T06:16:23;12.57;;;6.30;;
18796;SDS011;9526;52.612;13.300;2023-04-25T06:18:47;10.20;;;6.10;;
18796;SDS011;9526;52.612;13.300;2023-04-25T06:21:11;14.48;;;6.60;;
18796;SDS011;9526;52.612;13.300;2023-04-25T06:23:35;16.83;;;6.80;;
18796;SDS011;9526;52.612;13.300;2023-04-25T06:26:01;16.50;;;5.97;;
18796;SDS011;9526;52.612;13.300;2023-04-25T06:28:26;13.20;;;6.28;;
18796;SDS011;9526;52.612;13.300;2023-04-25T06:30:50;13.90;;;6.38;;
18796;SDS011;9526;52.612;13.300;2023-04-25T06:33:16;14.02;;;6.60;;
18796;SDS011;9526;52.612;13.300;2023-04-25T06:35:39;15.18;;;6.38;;
18796;SDS011;9526;52.612;13.300;2023-04-25T06:38:06;12.13;;;6.60;;
18796;SDS011;9526;52.612;13.300;2023-04-25T06:40:32;16.13;;;6.43;;
18796;SDS011;9526;52.612;13.300;2023-04-25T06:42:56;12.32;;;6.43;;
18796;SDS011;9526;52.612;13.300;2023-04-25T06:45:49;12.65;;;5.95;;
18796;SDS011;9526;52.612;13.300;2023-04-25T06:48:16;11.65;;;6.30;;
18796;SDS011;9526;52.612;13.300;2023-04-25T06:50:40;11.80;;;6.13;;
18796;SDS011;9526;52.612;13.300;2023-04-25T06:53:05;12.23;;;6.30;;
18796;SDS011;9526;52.612;13.300;2023-04-25T06:55:30;15.00;;;6.18;;
18796;SDS011;9526;52.612;13.300;2023-04-25T06:58:20;11.02;;;5.97;;
18796;SDS011;9526;52.612;13.300;2023-04-25T07:01:11;13.95;;;6.07;;
18796;SDS011;9526;52.612;13.300;2023-04-25T07:03:37;11.77;;;5.75;;
18796;SDS011;9526;52.612;13.300;2023-04-25T07:06:07;13.05;;;5.65;;
18796;SDS011;9526;52.612;13.300;2023-04-25T07:08:31;14.52;;;6.25;;
18796;SDS011;9526;52.612;13.300;2023-04-25T07:10:55;12.05;;;6.43;;
18796;SDS011;9526;52.612;13.300;2023-04-25T07:13:18;17.30;;;6.00;;
18796;SDS011;9526;52.612;13.300;2023-04-25T07:15:43;12.77;;;6.22;;
18796;SDS011;9526;52.612;13.300;2023-04-25T07:18:11;10.13;;;5.70;;
18796;SDS011;9526;52.612;13.300;2023-04-25T07:20:36;13.90;;;5.93;;
18796;SDS011;9526;52.612;13.300;2023-04-25T07:23:00;15.10;;;6.05;;
18796;SDS011;9526;52.612;13.300;2023-04-25T07:25:24;12.25;;;5.25;;
18796;SDS011;9526;52.612;13.300;2023-04-25T07:27:49;16.50;;;5.45;;
18796;SDS011;9526;52.612;13.300;2023-04-25T07:30:15;16.13;;;5.50;;
18796;SDS011;9526;52.612;13.300;2023-04-25T07:32:39;17.58;;;5.50;;
18796;SDS011;9526;52.612;13.300;2023-04-25T07:35:03;18.27;;;5.97;;
18796;SDS011;9526;52.612;13.300;2023-04-25T07:37:30;16.23;;;5.60;;
18796;SDS011;9526;52.612;13.300;2023-04-25T07:40:02;20.83;;;4.68;;
18796;SDS011;9526;52.612;13.300;2023-04-25T07:42:30;22.35;;;5.43;;
18796;SDS011;9526;52.612;13.300;2023-04-25T07:44:54;15.82;;;4.82;;
18796;SDS011;9526;52.612;13.300;2023-04-25T07:47:18;22.60;;;5.35;;
18796;SDS011;9526;52.612;13.300;2023-04-25T07:49:42;21.17;;;4.95;;
18796;SDS011;9526;52.612;13.300;2023-04-25T07:52:07;22.02;;;5.25;;
18796;SDS011;9526;52.612;13.300;2023-04-25T07:54:39;18.90;;;5.10;;
18796;SDS011;9526;52.612;13.300;2023-04-25T07:57:10;22.90;;;4.65;;
18796;SDS011;9526;52.612;13.300;2023-04-25T07:59:35;19.25;;;4.32;;
18796;SDS011;9526;52.612;13.300;2023-04-25T08:02:00;19.25;;;4.30;;
18796;SDS011;9526;52.612;13.300;2023-04-25T08:04:24;20.00;;;4.70;;
18796;SDS011;9526;52.612;13.300;2023-04-25T08:06:57;22.83;;;5.20;;
18796;SDS011;9526;52.612;13.300;2023-04-25T08:09:24;23.38;;;5.72;;
18796;SDS011;9526;52.612;13.300;2023-04-25T08:11:50;25.15;;;6.10;;
18796;SDS011;9526;52.612;13.300;2023-04-25T08:14:20;16.92;;;5.28;;
18796;SDS011;9526;52.612;13.300;2023-04-25T08:16:43;20.45;;;5.22;;
18796;SDS011;9526;52.612;13.300;2023-04-25T08:19:07;17.40;;;4.85;;
18796;SDS011;9526;52.612;13.300;2023-04-25T08:21:31;19.33;;;5.47;;
18796;SDS011;9526;52.612;13.300;2023-04-25T08:23:59;20.88;;;5.00;;
18796;SDS011;9526;52.612;13.300;2023-04-25T08:26:28;20.92;;;5.40;;
18796;SDS011;9526;52.612;13.300;2023-04-25T08:28:54;26.48;;;5.80;;
18796;SDS011;9526;52.612;13.300;2023-04-25T08:31:18;23.17;;;5.75;;
18796;SDS011;9526;52.612;13.300;2023-04-25T08:33:49;22.35;;;5.15;;
18796;SDS011;9526;52.612;13.300;2023-04-25T08:36:34;18.90;;;4.93;;
18796;SDS011;9526;52.612;13.300;2023-04-25T08:39:36;14.35;;;3.80;;
18796;SDS011;9526;52.612;13.300;2023-04-25T08:42:23;22.25;;;4.60;;
18796;SDS011;9526;52.612;13.300;2023-04-25T08:44:51;17.90;;;4.22;;
18796;SDS011;9526;52.612;13.300;2023-04-25T08:47:20;19.27;;;4.55;;
18796;SDS011;9526;52.612;13.300;2023-04-25T08:49:50;15.30;;;3.63;;
18796;SDS011;9526;52.612;13.300;2023-04-25T08:52:16;14.48;;;4.22;;
18796;SDS011;9526;52.612;13.300;2023-04-25T08:54:47;22.35;;;4.35;;
18796;SDS011;9526;52.612;13.300;2023-04-25T08:57:13;17.30;;;4.50;;
18796;SDS011;9526;52.612;13.300;2023-04-25T08:59:38;16.60;;;4.20;;
18796;SDS011;9526;52.612;13.300;2023-04-25T09:02:08;15.18;;;4.00;;
18796;SDS011;9526;52.612;13.300;2023-04-25T09:04:36;16.52;;;3.53;;
18796;SDS011;9526;52.612;13.300;2023-04-25T09:07:00;15.35;;;3.65;;
18796;SDS011;9526;52.612;13.300;2023-04-25T09:09:24;14.43;;;3.67;;
18796;SDS011;9526;52.612;13.300;2023-04-25T09:11:48;12.02;;;4.07;;
18796;SDS011;9526;52.612;13.300;2023-04-25T09:14:12;16.80;;;4.18;;
18796;SDS011;9526;52.612;13.300;2023-04-25T09:16:58;14.70;;;3.60;;
18796;SDS011;9526;52.612;13.300;2023-04-25T09:19:37;11.60;;;3.90;;
18796;SDS011;9526;52.612;13.300;2023-04-25T09:22:13;16.73;;;3.65;;
18796;SDS011;9526;52.612;13.300;2023-04-25T09:24:37;15.60;;;3.22;;
18796;SDS011;9526;52.612;13.300;2023-04-25T09:27:05;12.90;;;3.22;;
18796;SDS011;9526;52.612;13.300;2023-04-25T09:29:30;9.93;;;3.30;;
18796;SDS011;9526;52.612;13.300;2023-04-25T09:31:54;10.52;;;2.90;;
18796;SDS011;9526;52.612;13.300;2023-04-25T09:34:45;9.20;;;3.33;;
18796;SDS011;9526;52.612;13.300;2023-04-25T09:37:16;11.80;;;2.97;;
18796;SDS011;9526;52.612;13.300;2023-04-25T09:40:08;8.10;;;2.75;;
18796;SDS011;9526;52.612;13.300;2023-04-25T09:42:50;17.05;;;3.20;;
18796;SDS011;9526;52.612;13.300;2023-04-25T09:45:13;13.85;;;3.25;;
18796;SDS011;9526;52.612;13.300;2023-04-25T09:47:38;13.07;;;3.30;;
18796;SDS011;9526;52.612;13.300;2023-04-25T09:50:14;13.45;;;3.00;;
18796;SDS011;9526;52.612;13.300;2023-04-25T09:52:42;13.85;;;3.33;;
18796;SDS011;9526;52.612;13.300;2023-04-25T09:55:16;7.45;;;2.83;;
18796;SDS011;9526;52.612;13.300;2023-04-25T09:57:40;8.82;;;2.92;;
18796;SDS011;9526;52.612;13.300;2023-04-25T10:00:05;7.53;;;2.80;;
18796;SDS011;9526;52.612;13.300;2023-04-25T10:02:37;10.00;;;2.65;;
18796;SDS011;9526;52.612;13.300;2023-04-25T10:05:14;12.43;;;2.60;;
18796;SDS011;9526;52.612;13.300;2023-04-25T10:07:39;14.07;;;3.03;;
18796;SDS011;9526;52.612;13.300;2023-04-25T10:10:08;10.45;;;2.50;;
18796;SDS011;9526;52.612;13.300;2023-04-25T10:12:35;12.15;;;3.00;;
18796;SDS011;9526;52.612;13.300;2023-04-25T10:15:01;11.63;;;2.45;;
18796;SDS011;9526;52.612;13.300;2023-04-25T10:17:27;9.18;;;2.45;;
18796;SDS011;9526;52.612;13.300;2023-04-25T10:19:51;8.90;;;2.85;;
18796;SDS011;9526;52.612;13.300;2023-04-25T10:22:17;10.77;;;2.55;;
18796;SDS011;9526;52.612;13.300;2023-04-25T10:24:49;11.98;;;2.60;;
18796;SDS011;9526;52.612;13.300;2023-04-25T10:27:14;8.77;;;2.50;;
18796;SDS011;9526;52.612;13.300;2023-04-25T10:29:37;8.65;;;2.55;;
18796;SDS011;9526;52.612;13.300;2023-04-25T10:32:01;10.35;;;2.40;;
18796;SDS011;9526;52.612;13.300;2023-04-25T10:34:37;9.65;;;2.55;;
18796;SDS011;9526;52.612;13.300;2023-04-25T10:37:03;9.43;;;2.80;;
18796;SDS011;9526;52.612;13.300;2023-04-25T10:39:28;13.85;;;3.00;;
18796;SDS011;9526;52.612;13.300;2023-04-25T10:41:52;9.98;;;3.38;;
18796;SDS011;9526;52.612;13.300;2023-04-25T10:44:18;12.23;;;2.95;;
18796;SDS011;9526;52.612;13.300;2023-04-25T10:46:42;10.77;;;2.80;;
18796;SDS011;9526;52.612;13.300;2023-04-25T10:49:08;6.60;;;2.28;;
18796;SDS011;9526;52.612;13.300;2023-04-25T10:51:36;7.40;;;2.22;;
18796;SDS011;9526;52.612;13.300;2023-04-25T10:54:15;8.00;;;2.60;;
18796;SDS011;9526;52.612;13.300;2023-04-25T10:56:43;11.73;;;2.60;;
18796;SDS011;9526;52.612;13.300;2023-04-25T10:59:07;10.13;;;2.97;;
18796;SDS011;9526;52.612;13.300;2023-04-25T11:01:35;7.20;;;2.30;;
18796;SDS011;9526;52.612;13.300;2023-04-25T11:04:01;7.03;;;2.22;;
18796;SDS011;9526;52.612;13.300;2023-04-25T11:06:27;13.52;;;2.50;;
18796;SDS011;9526;52.612;13.300;2023-04-25T11:09:00;6.68;;;2.13;;
18796;SDS011;9526;52.612;13.300;2023-04-25T11:11:24;7.68;;;2.50;;
18796;SDS011;9526;52.612;13.300;2023-04-25T11:13:49;10.95;;;2.47;;
18796;SDS011;9526;52.612;13.300;2023-04-25T11:16:13;7.88;;;2.22;;
18796;SDS011;9526;52.612;13.300;2023-04-25T11:18:48;8.73;;;2.65;;
18796;SDS011;9526;52.612;13.300;2023-04-25T11:21:13;9.48;;;2.40;;
18796;SDS011;9526;52.612;13.300;2023-04-25T11:23:37;10.65;;;2.72;;
18796;SDS011;9526;52.612;13.300;2023-04-25T11:26:00;9.40;;;2.13;;
18796;SDS011;9526;52.612;13.300;2023-04-25T11:28:24;12.00;;;3.15;;
18796;SDS011;9526;52.612;13.300;2023-04-25T11:30:50;9.48;;;2.28;;
18796;SDS011;9526;52.612;13.300;2023-04-25T11:33:14;8.73;;;2.50;;
18796;SDS011;9526;52.612;13.300;2023-04-25T11:35:39;8.85;;;2.40;;
18796;SDS011;9526;52.612;13.300;2023-04-25T11:38:03;7.78;;;2.20;;
18796;SDS011;9526;52.612;13.300;2023-04-25T11:40:27;10.77;;;2.50;;
18796;SDS011;9526;52.612;13.300;2023-04-25T11:42:52;11.82;;;2.78;;
18796;SDS011;9526;52.612;13.300;2023-04-25T11:45:16;12.60;;;2.40;;
18796;SDS011;9526;52.612;13.300;2023-04-25T11:47:41;12.77;;;2.70;;
18796;SDS011;9526;52.612;13.300;2023-04-25T11:50:06;6.97;;;2.45;;
18796;SDS011;9526;52.612;13.300;2023-04-25T11:52:40;6.90;;;2.50;;
18796;SDS011;9526;52.612;13.300;2023-04-25T11:55:06;7.00;;;2.47;;
18796;SDS011;9526;52.612;13.300;2023-04-25T11:57:32;9.82;;;2.28;;
18796;SDS011;9526;52.612;13.300;2023-04-25T11:59:55;11.20;;;2.80;;
18796;SDS011;9526;52.612;13.300;2023-04-25T12:02:32;4.63;;;2.30;;
18796;SDS011;9526;52.612;13.300;2023-04-25T12:05:00;7.88;;;1.80;;
18796;SDS011;9526;52.612;13.300;2023-04-25T12:07:44;7.63;;;2.53;;
18796;SDS011;9526;52.612;13.300;2023-04-25T12:10:09;10.48;;;2.60;;
18796;SDS011;9526;52.612;13.300;2023-04-25T12:12:35;9.23;;;2.22;;
18796;SDS011;9526;52.612;13.300;2023-04-25T12:15:07;9.13;;;2.55;;
18796;SDS011;9526;52.612;13.300;2023-04-25T12:17:33;10.45;;;2.58;;
18796;SDS011;9526;52.612;13.300;2023-04-25T12:19:56;11.10;;;2.53;;
18796;SDS011;9526;52.612;13.300;2023-04-25T12:22:22;10.10;;;2.55;;
18796;SDS011;9526;52.612;13.300;2023-04-25T12:24:47;7.75;;;2.40;;
18796;SDS011;9526;52.612;13.300;2023-04-25T12:27:10;8.25;;;2.45;;
18796;SDS011;9526;52.612;13.300;2023-04-25T12:29:37;7.43;;;2.20;;
18796;SDS011;9526;52.612;13.300;2023-04-25T12:32:10;6.80;;;2.30;;
18796;SDS011;9526;52.612;13.300;2023-04-25T12:34:33;7.88;;;2.40;;
18796;SDS011;9526;52.612;13.300;2023-04-25T12:36:57;7.82;;;2.42;;
18796;SDS011;9526;52.612;13.300;2023-04-25T12:39:23;8.95;;;2.72;;
18796;SDS011;9526;52.612;13.300;2023-04-25T12:41:47;13.07;;;2.80;;
18796;SDS011;9526;52.612;13.300;2023-04-25T12:44:11;6.88;;;2.42;;
18796;SDS011;9526;52.612;13.300;2023-04-25T12:46:35;11.82;;;2.60;;
18796;SDS011;9526;52.612;13.300;2023-04-25T12:48:59;11.68;;;2.75;;
18796;SDS011;9526;52.612;13.300;2023-04-25T12:51:38;8.80;;;2.80;;
18796;SDS011;9526;52.612;13.300;2023-04-25T12:54:03;9.40;;;2.70;;
18796;SDS011;9526;52.612;13.300;2023-04-25T12:56:30;9.40;;;2.35;;
18796;SDS011;9526;52.612;13.300;2023-04-25T12:58:53;8.35;;;2.80;;
18796;SDS011;9526;52.612;13.300;2023-04-25T13:01:17;8.35;;;2.20;;
18796;SDS011;9526;52.612;13.300;2023-04-25T13:03:41;15.35;;;2.30;;
18796;SDS011;9526;52.612;13.300;2023-04-25T13:06:06;5.95;;;2.05;;
18796;SDS011;9526;52.612;13.300;2023-04-25T13:08:29;7.40;;;2.10;;
18796;SDS011;9526;52.612;13.300;2023-04-25T13:10:53;8.77;;;2.47;;
18796;SDS011;9526;52.612;13.300;2023-04-25T13:13:18;5.97;;;2.33;;
18796;SDS011;9526;52.612;13.300;2023-04-25T13:15:41;10.95;;;2.25;;
18796;SDS011;9526;52.612;13.300;2023-04-25T13:18:06;10.60;;;2.45;;
18796;SDS011;9526;52.612;13.300;2023-04-25T13:20:29;8.77;;;2.03;;
18796;SDS011;9526;52.612;13.300;2023-04-25T13:22:53;6.78;;;2.03;;
18796;SDS011;9526;52.612;13.300;2023-04-25T13:25:17;8.00;;;1.92;;
18796;SDS011;9526;52.612;13.300;2023-04-25T13:27:41;6.03;;;2.00;;
18796;SDS011;9526;52.612;13.300;2023-04-25T13:30:08;8.57;;;2.13;;
18796;SDS011;9526;52.612;13.300;2023-04-25T13:32:33;5.38;;;2.40;;
18796;SDS011;9526;52.612;13.300;2023-04-25T13:34:58;8.02;;;2.25;;
18796;SDS011;9526;52.612;13.300;2023-04-25T13:37:25;7.65;;;2.20;;
18796;SDS011;9526;52.612;13.300;2023-04-25T13:39:49;10.23;;;2.15;;
18796;SDS011;9526;52.612;13.300;2023-04-25T13:42:13;7.18;;;2.00;;
18796;SDS011;9526;52.612;13.300;2023-04-25T13:44:37;6.18;;;1.77;;
18796;SDS011;9526;52.612;13.300;2023-04-25T13:47:02;6.72;;;1.95;;
18796;SDS011;9526;52.612;13.300;2023-04-25T13:49:26;6.97;;;2.08;;
18796;SDS011;9526;52.612;13.300;2023-04-25T13:51:50;6.28;;;1.90;;
18796;SDS011;9526;52.612;13.300;2023-04-25T13:54:13;7.22;;;1.90;;
18796;SDS011;9526;52.612;13.300;2023-04-25T13:56:37;8.93;;;2.40;;
18796;SDS011;9526;52.612;13.300;2023-04-25T13:59:03;5.70;;;1.70;;
18796;SDS011;9526;52.612;13.300;2023-04-25T14:01:27;7.47;;;2.10;;
18796;SDS011;9526;52.612;13.300;2023-04-25T14:03:54;5.38;;;2.10;;
18796;SDS011;9526;52.612;13.300;2023-04-25T14:06:17;5.65;;;1.95;;
18796;SDS011;9526;52.612;13.300;2023-04-25T14:08:44;6.40;;;1.80;;
18796;SDS011;9526;52.612;13.300;2023-04-25T14:11:08;6.93;;;1.85;;
18796;SDS011;9526;52.612;13.300;2023-04-25T14:13:32;4.00;;;1.73;;
18796;SDS011;9526;52.612;13.300;2023-04-25T14:15:55;4.78;;;1.65;;
18796;SDS011;9526;52.612;13.300;2023-04-25T14:18:19;4.70;;;1.70;;
18796;SDS011;9526;52.612;13.300;2023-04-25T14:20:44;5.53;;;1.90;;
18796;SDS011;9526;52.612;13.300;2023-04-25T14:23:08;5.68;;;2.00;;
18796;SDS011;9526;52.612;13.300;2023-04-25T14:25:32;9.35;;;2.25;;
18796;SDS011;9526;52.612;13.300;2023-04-25T14:27:57;6.88;;;2.25;;
18796;SDS011;9526;52.612;13.300;2023-04-25T14:30:20;8.10;;;1.98;;
18796;SDS011;9526;52.612;13.300;2023-04-25T14:32:44;5.95;;;1.95;;
18796;SDS011;9526;52.612;13.300;2023-04-25T14:35:08;3.33;;;1.63;;
18796;SDS011;9526;52.612;13.300;2023-04-25T14:37:33;5.68;;;2.20;;
18796;SDS011;9526;52.612;13.300;2023-04-25T14:39:57;7.75;;;1.92;;
18796;SDS011;9526;52.612;13.300;2023-04-25T14:42:21;6.50;;;1.75;;